Time;durP1;ratioP1;P1;durP2;ratioP2;P2;SDS_P1;SDS_P2;PMS_P1;PMS_P2;Temp;Humidity;BMP_temperature;BMP_pressure;BME280_temperature;BME280_humidity;BME280_pressure;Samples;Min_cycle;Max_cycle;Signal;HPM_P1;HPM_P2
2021/09/30 00:00:20;;;;;;;10.83;8.23;;;;;;;15.43;65.18;95844.63;5010980;28;20942;-73
2021/09/30 00:02:49;;;;;;;9.97;8.33;;;;;;;15.31;64.91;95844.06;5023430;28;20448;-74
2021/09/30 00:05:16;;;;;;;10.00;8.00;;;;;;;15.32;65.38;95846.44;5018656;28;20579;-72
2021/09/30 00:07:43;;;;;;;8.83;7.93;;;;;;;15.39;64.93;95843.53;5023199;28;20496;-73
2021/09/30 00:10:15;;;;;;;12.33;8.77;;;;;;;15.30;65.52;95843.28;5011310;28;20436;-72
2021/09/30 00:12:47;;;;;;;10.33;7.60;;;;;;;15.21;65.17;95839.56;5010462;28;20511;-73
2021/09/30 00:16:20;;;;;;;12.87;7.83;;;;;;;15.15;65.39;95841.38;5015220;28;20454;-73
2021/09/30 00:18:27;;;;;;;10.97;8.40;;;;;;;15.22;65.39;95847.22;5013836;28;20482;-73
2021/09/30 00:40:22;;;;;;;10.33;6.70;;;;;;;15.03;64.64;95832.91;5010436;28;20479;-72
2021/09/30 00:48:30;;;;;;;7.90;6.17;;;;;;;15.12;64.65;95828.72;5025171;28;20444;-74
2021/09/30 02:22:31;;;;;;;10.67;6.03;;;;;;;14.82;62.79;95830.44;5012315;28;20535;-75
2021/09/30 02:25:06;;;;;;;7.13;5.73;;;;;;;14.75;63.39;95835.97;5004919;28;20818;-74
2021/09/30 02:39:11;;;;;;;8.37;6.50;;;;;;;14.79;63.73;95825.69;5004575;28;20622;-73
2021/09/30 02:58:56;;;;;;;7.97;6.70;;;;;;;14.98;62.79;95843.44;5011770;28;20480;-71
2021/09/30 03:01:27;;;;;;;12.10;7.53;;;;;;;15.08;62.38;95843.50;5010363;28;20449;-72
2021/09/30 03:03:59;;;;;;;9.83;7.27;;;;;;;15.08;63.12;95835.56;5010751;28;20507;-72
2021/09/30 03:06:28;;;;;;;9.77;7.77;;;;;;;14.90;62.53;95832.59;5010515;28;20441;-72
2021/09/30 03:08:58;;;;;;;9.10;7.33;;;;;;;14.84;63.23;95844.19;5010349;28;20451;-73
2021/09/30 03:11:27;;;;;;;12.17;7.93;;;;;;;14.89;63.03;95847.63;5011468;28;20888;-74
2021/09/30 03:13:57;;;;;;;8.33;7.37;;;;;;;14.85;63.15;95841.28;5013312;28;20938;-75
2021/09/30 03:17:03;;;;;;;8.57;7.30;;;;;;;14.94;63.10;95849.50;5025584;28;20484;-73
2021/09/30 03:24:42;;;;;;;16.43;7.83;;;;;;;14.79;63.04;95847.63;5019932;28;20476;-74
2021/09/30 03:27:09;;;;;;;8.20;7.30;;;;;;;14.83;63.14;95861.88;5018765;28;21043;-74
2021/09/30 03:29:37;;;;;;;13.13;8.20;;;;;;;14.88;63.34;95847.91;5013727;28;20495;-74
2021/09/30 03:32:06;;;;;;;10.43;7.83;;;;;;;14.89;62.96;95852.13;5009992;28;20805;-74
2021/09/30 03:34:53;;;;;;;14.93;8.20;;;;;;;14.88;63.36;95851.34;5025780;28;20484;-75
2021/09/30 03:37:23;;;;;;;11.70;7.70;;;;;;;14.85;63.30;95846.56;5010347;28;20535;-75
2021/09/30 03:39:50;;;;;;;11.33;8.30;;;;;;;14.74;63.53;95849.44;5016200;28;20842;-76
2021/09/30 03:42:17;;;;;;;12.33;8.63;;;;;;;14.89;63.74;95847.63;5024587;28;20448;-77
2021/09/30 03:44:50;;;;;;;13.33;8.87;;;;;;;15.00;63.10;95845.81;5009572;28;20827;-72
2021/09/30 03:47:18;;;;;;;13.17;9.57;;;;;;;14.77;63.29;95844.44;4995352;28;20865;-72
2021/09/30 03:49:57;;;;;;;16.80;9.30;;;;;;;15.00;63.16;95848.47;5034541;28;20444;-73
2021/09/30 04:00:25;;;;;;;12.83;9.93;;;;;;;14.82;63.54;95836.53;5011627;28;20449;-71
2021/09/30 04:02:53;;;;;;;15.87;10.00;;;;;;;14.89;63.24;95852.91;5009519;28;20460;-72
2021/09/30 04:05:21;;;;;;;14.87;10.77;;;;;;;14.73;63.66;95853.91;5010837;28;20532;-72
2021/09/30 04:07:48;;;;;;;17.83;10.67;;;;;;;14.91;63.49;95845.53;5009758;28;20441;-71
2021/09/30 04:10:17;;;;;;;17.60;10.97;;;;;;;14.77;63.74;95854.19;5005367;28;20465;-73
2021/09/30 04:12:46;;;;;;;14.17;10.87;;;;;;;14.89;64.01;95857.41;5005026;28;20445;-72
2021/09/30 04:15:13;;;;;;;15.63;11.87;;;;;;;14.82;64.03;95841.00;5017838;28;20558;-72
2021/09/30 04:17:40;;;;;;;17.80;12.00;;;;;;;14.85;63.20;95846.56;4997502;28;20487;-74
2021/09/30 04:20:22;;;;;;;16.23;12.47;;;;;;;14.78;63.48;95835.47;5000237;28;20454;-72
2021/09/30 04:22:55;;;;;;;15.83;13.10;;;;;;;14.95;63.28;95854.53;4995575;28;20445;-73
2021/09/30 04:25:23;;;;;;;19.23;12.77;;;;;;;14.84;63.71;95855.53;5005367;28;20441;-73
2021/09/30 04:27:51;;;;;;;16.90;12.90;;;;;;;14.65;64.14;95857.03;5007725;28;20804;-72
2021/09/30 04:30:18;;;;;;;16.53;13.77;;;;;;;14.69;64.28;95858.09;5013552;28;20448;-70
2021/09/30 04:33:02;;;;;;;18.83;13.37;;;;;;;14.64;65.09;95859.94;5023022;28;20463;-70
2021/09/30 04:35:32;;;;;;;18.57;13.07;;;;;;;14.50;65.46;95870.16;5008501;28;20448;-70
2021/09/30 04:37:59;;;;;;;16.27;13.13;;;;;;;14.47;66.28;95854.84;5008387;28;20438;-70
2021/09/30 04:40:26;;;;;;;16.47;13.57;;;;;;;14.68;65.60;95867.09;5008824;28;20914;-71
2021/09/30 04:42:53;;;;;;;22.17;14.40;;;;;;;14.57;65.09;95865.44;5006971;28;20527;-69
2021/09/30 04:45:20;;;;;;;53.70;41.07;;;;;;;14.76;65.21;95842.84;5014271;28;20543;-69
2021/09/30 04:47:50;;;;;;;43.70;33.70;;;;;;;14.85;64.54;95857.13;5004818;28;20448;-69
2021/09/30 04:50:17;;;;;;;48.30;36.00;;;;;;;14.78;64.56;95864.47;5021495;28;20449;-69
2021/09/30 04:52:45;;;;;;;23.27;14.60;;;;;;;14.95;64.19;95866.91;4993417;28;20441;-67
2021/09/30 04:55:12;;;;;;;17.17;13.90;;;;;;;14.95;64.62;95867.72;5022724;28;20472;-68
2021/09/30 04:57:41;;;;;;;21.93;14.73;;;;;;;14.99;65.14;95871.44;5006728;28;20487;-66
2021/09/30 05:00:09;;;;;;;101.03;76.20;;;;;;;14.93;64.43;95869.81;5005608;28;20445;-70
2021/09/30 05:02:59;;;;;;;323.40;255.97;;;;;;;14.85;64.00;95840.50;5003901;28;20559;-69
2021/09/30 05:05:26;;;;;;;22.53;16.53;;;;;;;15.06;64.38;95866.72;4997013;28;20457;-67
2021/09/30 05:07:53;;;;;;;26.33;13.97;;;;;;;15.03;64.43;95875.16;5000879;28;20441;-67
2021/09/30 05:10:22;;;;;;;16.83;13.20;;;;;;;15.00;64.13;95875.66;5002108;28;20509;-67
2021/09/30 05:12:49;;;;;;;18.47;14.47;;;;;;;15.03;64.52;95885.72;5007606;28;20445;-64
2021/09/30 05:15:16;;;;;;;23.13;13.67;;;;;;;14.87;64.28;95881.41;5007692;28;21055;-67
2021/09/30 05:17:43;;;;;;;20.97;14.63;;;;;;;14.79;65.05;95883.75;5018353;28;20535;-65
2021/09/30 05:20:12;;;;;;;18.30;13.73;;;;;;;14.87;64.74;95891.97;5008278;28;20449;-69
2021/09/30 05:22:39;;;;;;;153.47;125.87;;;;;;;14.88;64.38;95893.56;5006955;28;20445;-69
2021/09/30 05:25:06;;;;;;;124.90;105.07;;;;;;;14.94;64.59;95897.78;5024879;28;20858;-66
2021/09/30 05:27:33;;;;;;;18.83;15.23;;;;;;;15.03;64.73;95900.75;5004620;28;20766;-73
2021/09/30 05:30:00;;;;;;;23.10;13.93;;;;;;;15.08;64.41;95892.84;5007116;28;20544;-67
2021/09/30 05:32:30;;;;;;;20.13;14.47;;;;;;;15.23;64.29;95895.53;5007436;28;20444;-68
2021/09/30 05:35:04;;;;;;;17.90;13.10;;;;;;;15.23;63.65;95893.69;5004242;28;20579;-66
2021/09/30 05:37:41;;;;;;;20.43;14.00;;;;;;;15.20;64.01;95904.75;5004355;28;20449;-67
2021/09/30 05:40:14;;;;;;;17.13;12.57;;;;;;;15.25;63.43;95904.75;5008400;28;20547;-69
2021/09/30 05:42:44;;;;;;;18.90;13.13;;;;;;;15.24;63.97;95903.19;5004910;28;20536;-66
2021/09/30 05:45:14;;;;;;;15.50;12.50;;;;;;;15.28;64.17;95898.19;4998692;28;20437;-66
2021/09/30 05:47:42;;;;;;;21.80;12.80;;;;;;;15.34;62.96;95906.91;5008780;28;20449;-67
2021/09/30 05:50:12;;;;;;;15.80;12.53;;;;;;;15.27;63.72;95901.09;5018414;28;20860;-70
2021/09/30 05:52:58;;;;;;;20.80;14.10;;;;;;;15.20;64.06;95907.41;5007134;28;20540;-67
2021/09/30 05:55:45;;;;;;;19.83;13.27;;;;;;;15.27;63.68;95902.66;5005720;28;20495;-70
2021/09/30 05:58:13;;;;;;;17.03;13.13;;;;;;;15.27;63.79;95905.31;5007016;28;20479;-67
2021/09/30 06:14:11;;;;;;;21.30;13.00;;;;;;;15.53;62.26;95918.63;5009502;28;20472;-68
2021/09/30 06:16:44;;;;;;;26.07;12.87;;;;;;;15.54;62.45;95922.84;5009098;28;20436;-68
2021/09/30 06:19:30;;;;;;;24.40;13.83;;;;;;;15.72;61.81;95920.50;5011485;28;20441;-65
2021/09/30 06:22:04;;;;;;;17.90;13.07;;;;;;;15.85;61.95;95919.19;5011159;28;20441;-68
2021/09/30 06:24:35;;;;;;;16.90;11.50;;;;;;;15.77;61.03;95922.34;5011410;28;21032;-69
2021/09/30 06:27:19;;;;;;;16.50;13.40;;;;;;;16.00;61.37;95922.63;5011400;28;20456;-69
2021/09/30 06:29:46;;;;;;;16.27;12.17;;;;;;;16.03;60.59;95932.69;5017919;28;20440;-70
2021/09/30 06:32:13;;;;;;;14.63;11.90;;;;;;;15.97;59.91;95940.88;5019626;28;20444;-67
2021/09/30 06:35:15;;;;;;;16.50;12.73;;;;;;;15.92;60.82;95909.16;5017624;28;20498;-65
2021/09/30 06:37:48;;;;;;;16.70;12.73;;;;;;;15.70;61.29;95927.09;5010701;28;20849;-67
2021/09/30 06:40:15;;;;;;;15.20;12.33;;;;;;;15.92;60.42;95925.81;5011793;28;20449;-69
2021/09/30 06:42:45;;;;;;;16.90;12.90;;;;;;;15.92;60.44;95927.66;5011106;28;20986;-68
2021/09/30 06:45:12;;;;;;;18.47;13.23;;;;;;;15.95;60.23;95935.06;5012915;28;20428;-68
2021/09/30 06:48:05;;;;;;;13.93;10.90;;;;;;;15.98;59.49;95924.75;5010872;28;20456;-65
2021/09/30 06:50:46;;;;;;;21.27;13.17;;;;;;;16.12;59.47;95923.19;5011124;28;20895;-70
2021/09/30 06:53:25;;;;;;;14.43;11.90;;;;;;;16.13;60.20;95932.69;5028300;28;20448;-66
2021/09/30 06:55:52;;;;;;;16.10;12.00;;;;;;;16.17;58.89;95914.44;5022435;28;20568;-66
2021/09/30 06:58:45;;;;;;;22.47;13.17;;;;;;;16.63;58.21;95926.59;5012304;28;21071;-66
2021/09/30 07:01:13;;;;;;;17.70;12.83;;;;;;;16.52;58.35;95930.31;5001276;28;20444;-66
2021/09/30 07:03:59;;;;;;;17.10;13.73;;;;;;;16.62;57.16;95938.25;4998650;28;20441;-64
2021/09/30 07:06:34;;;;;;;15.07;13.43;;;;;;;16.47;56.76;95943.56;5010312;28;20444;-69
2021/09/30 07:09:05;;;;;;;19.57;14.50;;;;;;;16.46;55.92;95941.16;5010608;28;20476;-65
2021/09/30 07:11:32;;;;;;;18.50;13.93;;;;;;;16.45;55.81;95945.66;5011553;28;20468;-65
2021/09/30 07:13:59;;;;;;;17.43;15.23;;;;;;;16.40;56.18;95948.31;5011833;28;20814;-68
2021/09/30 07:16:26;;;;;;;16.43;12.50;;;;;;;16.19;55.49;95936.13;5011997;28;20795;-68
2021/09/30 07:18:53;;;;;;;15.50;12.83;;;;;;;16.56;55.23;95915.50;5012186;28;20445;-65
2021/09/30 07:21:20;;;;;;;12.83;10.13;;;;;;;16.70;56.33;95939.53;5011673;28;20543;-65
2021/09/30 07:23:47;;;;;;;10.77;8.43;;;;;;;16.88;55.04;95937.13;5011822;28;20983;-67
2021/09/30 07:26:13;;;;;;;11.13;7.73;;;;;;;16.74;54.04;95932.66;5015513;28;20443;-67
2021/09/30 07:28:40;;;;;;;16.80;8.17;;;;;;;16.84;54.48;95928.13;5020334;28;20456;-66
2021/09/30 07:31:08;;;;;;;9.90;6.07;;;;;;;16.41;52.61;95944.59;5025441;28;20502;-68
2021/09/30 07:33:35;;;;;;;11.83;6.57;;;;;;;16.70;52.77;95953.56;5011621;28;21039;-66
2021/09/30 07:36:03;;;;;;;9.67;6.47;;;;;;;16.83;52.03;95945.06;5010930;28;20954;-71
2021/09/30 07:38:30;;;;;;;13.43;6.43;;;;;;;17.10;52.57;95932.28;5012203;28;20441;-68
2021/09/30 07:40:57;;;;;;;12.30;6.37;;;;;;;17.19;52.18;95928.00;5011536;28;20510;-65
2021/09/30 07:43:24;;;;;;;13.43;6.07;;;;;;;17.31;51.96;95937.50;5016598;28;20462;-66
2021/09/30 07:45:51;;;;;;;9.50;6.97;;;;;;;17.42;52.66;95928.44;5019696;28;20452;-67
2021/09/30 07:48:18;;;;;;;10.03;6.93;;;;;;;17.42;51.17;95923.94;5011582;28;20479;-67
2021/09/30 07:50:46;;;;;;;9.80;6.77;;;;;;;17.32;51.19;95928.50;5011257;28;20433;-69
2021/09/30 07:53:14;;;;;;;12.13;7.10;;;;;;;17.56;51.25;95924.16;5010986;28;20445;-68
2021/09/30 07:55:42;;;;;;;11.10;7.17;;;;;;;17.61;51.69;95918.84;5011055;28;20479;-66
2021/09/30 07:58:10;;;;;;;9.97;8.07;;;;;;;17.81;51.10;95926.66;5010815;28;20579;-70
2021/09/30 08:00:39;;;;;;;15.90;8.20;;;;;;;17.74;51.15;95923.50;5012160;28;20492;-65
2021/09/30 08:03:07;;;;;;;15.40;8.63;;;;;;;17.29;51.81;95923.72;5000700;28;20881;-67
2021/09/30 08:05:35;;;;;;;13.17;9.80;;;;;;;17.76;51.95;95919.53;5012584;28;20507;-67
2021/09/30 08:08:07;;;;;;;12.20;9.63;;;;;;;17.84;51.61;95931.41;5022440;28;20809;-69
2021/09/30 08:10:35;;;;;;;13.17;9.77;;;;;;;17.92;50.58;95928.16;5011026;28;20511;-66
2021/09/30 08:13:03;;;;;;;12.60;9.77;;;;;;;17.77;50.61;95922.97;5010666;28;20480;-70
2021/09/30 08:15:30;;;;;;;15.30;10.43;;;;;;;17.95;50.90;95935.56;5010989;28;20504;-69
2021/09/30 08:17:57;;;;;;;14.77;9.40;;;;;;;17.66;50.00;95924.09;4996968;28;20444;-68
2021/09/30 08:20:25;;;;;;;17.87;9.53;;;;;;;17.80;50.58;95930.38;5010999;28;20448;-66
2021/09/30 08:22:53;;;;;;;15.17;9.40;;;;;;;17.69;50.44;95919.03;5009915;28;20770;-67
2021/09/30 08:25:22;;;;;;;14.07;10.07;;;;;;;17.81;49.97;95924.78;5010794;28;20447;-68
2021/09/30 08:27:49;;;;;;;17.60;10.97;;;;;;;17.98;50.28;95925.22;5013423;28;20452;-67
2021/09/30 08:30:16;;;;;;;16.47;10.00;;;;;;;17.98;50.19;95927.06;5021334;28;20452;-66
2021/09/30 08:32:43;;;;;;;11.43;9.77;;;;;;;17.41;49.77;95900.38;5011454;28;20560;-68
2021/09/30 08:35:11;;;;;;;12.27;10.43;;;;;;;17.54;50.58;95931.56;5022970;28;20484;-68
2021/09/30 08:37:38;;;;;;;11.80;10.30;;;;;;;17.76;50.77;95934.63;5010287;28;20996;-65
2021/09/30 08:40:06;;;;;;;15.93;11.83;;;;;;;17.83;50.50;95929.81;4997274;28;20440;-67
2021/09/30 08:42:33;;;;;;;13.77;11.33;;;;;;;17.77;50.59;95933.59;5010971;28;20440;-64
2021/09/30 08:45:00;;;;;;;15.20;10.23;;;;;;;17.48;50.80;95922.09;5010622;28;20823;-68
2021/09/30 08:47:29;;;;;;;16.23;10.50;;;;;;;17.14;50.32;95941.28;5010332;28;20433;-68
2021/09/30 08:49:57;;;;;;;15.33;11.37;;;;;;;17.13;50.77;95936.25;5013937;28;20976;-68
2021/09/30 08:52:24;;;;;;;13.27;11.50;;;;;;;17.17;51.76;95935.44;5020491;28;20448;-69
2021/09/30 08:54:50;;;;;;;15.50;10.43;;;;;;;16.84;51.24;95922.81;5010530;28;21032;-67
2021/09/30 08:57:17;;;;;;;16.33;10.53;;;;;;;16.98;51.93;95939.75;5010277;28;20591;-68
2021/09/30 09:00:00;;;;;;;17.00;11.00;;;;;;;17.44;51.58;95934.25;5010458;28;20456;-65
2021/09/30 09:02:27;;;;;;;17.03;10.20;;;;;;;17.50;50.26;95930.56;4998966;28;20973;-67
2021/09/30 09:04:57;;;;;;;16.60;9.27;;;;;;;17.19;50.65;95927.19;5010494;28;20460;-69
2021/09/30 09:07:29;;;;;;;14.90;10.47;;;;;;;17.57;51.70;95925.75;5006695;28;20475;-68
2021/09/30 09:09:58;;;;;;;13.57;9.00;;;;;;;17.57;49.82;95931.03;5010776;28;20456;-64
2021/09/30 09:12:26;;;;;;;15.73;10.07;;;;;;;18.00;49.92;95924.94;5007911;28;20448;-68
2021/09/30 09:14:53;;;;;;;15.90;9.80;;;;;;;18.25;49.45;95916.75;5010617;28;20892;-68
2021/09/30 09:17:21;;;;;;;16.37;9.53;;;;;;;18.62;48.82;95908.22;5010703;28;20436;-69
2021/09/30 09:19:49;;;;;;;12.07;9.23;;;;;;;18.91;47.98;95925.72;5003378;28;20946;-67
2021/09/30 09:22:20;;;;;;;10.40;8.60;;;;;;;18.86;47.78;95915.16;5003721;28;20441;-73
2021/09/30 09:24:57;;;;;;;11.40;9.00;;;;;;;18.89;46.89;95916.44;5010262;28;20994;-69
2021/09/30 09:27:43;;;;;;;11.07;8.60;;;;;;;18.91;47.19;95915.09;5009612;28;20440;-67
2021/09/30 09:30:32;;;;;;;14.23;8.97;;;;;;;19.27;46.88;95922.66;4998774;28;20451;-67
2021/09/30 09:33:17;;;;;;;11.20;7.27;;;;;;;18.70;46.43;95924.31;5009856;28;20499;-66
2021/09/30 09:35:58;;;;;;;12.43;8.63;;;;;;;19.30;47.16;95916.75;4998151;28;21017;-70
2021/09/30 09:38:29;;;;;;;14.80;9.00;;;;;;;19.11;47.51;95914.88;4996703;28;20444;-67
2021/09/30 09:41:04;;;;;;;12.83;8.43;;;;;;;19.09;47.25;95924.97;4997412;28;20676;-69
2021/09/30 09:43:33;;;;;;;8.53;7.63;;;;;;;19.27;46.84;95917.34;4990280;28;20437;-69
2021/09/30 09:46:02;;;;;;;10.07;8.67;;;;;;;18.99;48.21;95929.63;5002394;28;20490;-67
2021/09/30 09:48:33;;;;;;;14.53;7.50;;;;;;;18.58;47.42;95900.03;5009607;28;20297;-70
2021/09/30 09:51:04;;;;;;;10.73;7.33;;;;;;;18.61;47.57;95920.69;4997584;28;20199;-64
2021/09/30 09:53:33;;;;;;;10.47;6.67;;;;;;;18.50;46.84;95919.25;4998193;28;20448;-69
2021/09/30 09:56:20;;;;;;;11.30;8.27;;;;;;;18.62;47.70;95926.81;5013293;28;20471;-68
2021/09/30 09:58:57;;;;;;;9.40;6.80;;;;;;;18.28;47.69;95920.72;4994104;28;20919;-68
2021/09/30 10:01:38;;;;;;;7.93;6.70;;;;;;;18.26;48.29;95915.72;4994676;28;20449;-66
2021/09/30 10:04:06;;;;;;;13.10;6.53;;;;;;;18.42;48.15;95911.06;4994237;28;20236;-67
2021/09/30 10:06:34;;;;;;;9.67;6.63;;;;;;;18.55;48.50;95921.03;5006203;28;20451;-65
2021/09/30 10:09:05;;;;;;;8.80;6.20;;;;;;;18.33;48.43;95916.16;5013657;28;20444;-68
2021/09/30 10:11:32;;;;;;;7.37;6.17;;;;;;;18.16;48.65;95913.13;5013229;28;20451;-64
2021/09/30 10:14:02;;;;;;;15.07;6.07;;;;;;;18.27;48.93;95909.31;5014322;28;20444;-66
2021/09/30 10:16:30;;;;;;;8.07;5.23;;;;;;;18.17;48.64;95914.72;5024852;28;20472;-69
2021/09/30 10:19:09;;;;;;;11.20;5.83;;;;;;;18.22;48.49;95914.69;5012822;28;20451;-68
2021/09/30 10:21:38;;;;;;;6.80;5.97;;;;;;;18.34;47.96;95912.44;5012837;28;20445;-71
2021/09/30 10:24:16;;;;;;;10.97;5.80;;;;;;;18.39;48.56;95901.81;5013264;28;20445;-64
2021/09/30 10:26:46;;;;;;;8.37;5.80;;;;;;;18.50;48.71;95916.59;5013314;28;20440;-70
2021/09/30 10:29:45;;;;;;;11.20;6.30;;;;;;;18.57;48.41;95908.28;5013838;28;20942;-68
2021/09/30 10:32:22;;;;;;;10.03;6.30;;;;;;;18.76;47.86;95912.59;5012910;28;20441;-69
2021/09/30 10:35:01;;;;;;;9.00;6.20;;;;;;;18.75;48.04;95911.03;5013146;28;20494;-66
2021/09/30 10:37:32;;;;;;;10.17;5.70;;;;;;;18.78;47.84;95904.34;5012585;28;20454;-70
2021/09/30 10:40:10;;;;;;;7.47;5.77;;;;;;;18.81;48.27;95904.56;5012792;28;20460;-66
2021/09/30 10:43:21;;;;;;;10.50;5.90;;;;;;;18.83;47.22;95902.41;5011912;28;20964;-68
2021/09/30 10:45:48;;;;;;;23.63;6.07;;;;;;;18.54;49.19;95906.97;5012660;28;20875;-71
2021/09/30 10:48:34;;;;;;;12.20;5.80;;;;;;;18.38;48.86;95905.50;5013745;28;20451;-68
2021/09/30 10:51:12;;;;;;;5.67;4.90;;;;;;;18.54;48.10;95899.00;5014925;28;20544;-67
2021/09/30 10:53:45;;;;;;;7.80;5.33;;;;;;;18.53;48.18;95902.75;5019058;28;20440;-71
2021/09/30 10:56:27;;;;;;;9.53;5.37;;;;;;;18.62;47.65;95906.38;5018621;28;20479;-66
2021/09/30 10:59:01;;;;;;;8.30;5.50;;;;;;;18.51;47.86;95915.50;5014105;28;20483;-65
2021/09/30 11:01:28;;;;;;;7.67;5.67;;;;;;;18.42;47.42;95919.03;4999610;28;20471;-66
2021/09/30 11:04:03;;;;;;;11.37;4.90;;;;;;;18.20;47.21;95908.84;4999348;28;20202;-65
2021/09/30 11:06:31;;;;;;;7.53;5.57;;;;;;;18.01;46.89;95910.63;5012135;28;20220;-68
2021/09/30 11:09:11;;;;;;;13.13;5.50;;;;;;;17.92;47.89;95906.94;5012171;28;20869;-70
2021/09/30 11:11:38;;;;;;;8.03;5.00;;;;;;;17.91;47.72;95906.16;5011904;28;20503;-69
2021/09/30 11:14:07;;;;;;;8.43;6.10;;;;;;;18.36;47.62;95905.00;5012232;28;20441;-69
2021/09/30 11:16:42;;;;;;;9.13;5.83;;;;;;;18.60;47.55;95905.84;5011794;28;20465;-67
2021/09/30 11:19:33;;;;;;;8.37;5.63;;;;;;;18.62;47.15;95901.06;5013682;28;20797;-67
2021/09/30 11:22:05;;;;;;;6.63;5.60;;;;;;;18.64;47.75;95906.88;5011894;28;20436;-65
2021/09/30 11:24:38;;;;;;;9.80;6.50;;;;;;;18.71;47.58;95899.38;5015700;28;20925;-67
2021/09/30 11:27:11;;;;;;;6.87;5.67;;;;;;;18.76;47.05;95901.97;5019878;28;20451;-66
2021/09/30 11:29:38;;;;;;;7.57;5.30;;;;;;;18.61;47.16;95896.81;5009931;28;20847;-67
2021/09/30 11:32:05;;;;;;;13.57;5.67;;;;;;;18.84;47.16;95901.38;5011583;28;20205;-67
2021/09/30 11:34:38;;;;;;;9.20;5.20;;;;;;;18.98;46.43;95894.28;5011543;28;20487;-68
2021/09/30 11:37:28;;;;;;;7.70;5.40;;;;;;;18.89;47.05;95896.00;5011063;28;21014;-66
2021/09/30 11:39:58;;;;;;;10.40;7.27;;;;;;;18.73;48.69;95893.78;5011807;28;20452;-69
2021/09/30 11:42:37;;;;;;;12.40;5.27;;;;;;;18.79;48.92;95901.44;5011419;28;20814;-67
2021/09/30 11:45:09;;;;;;;28.93;18.63;;;;;;;18.85;49.32;95894.19;5011526;28;20448;-71
2021/09/30 11:47:38;;;;;;;8.03;6.23;;;;;;;18.80;50.10;95897.69;5011028;28;20457;-71
2021/09/30 11:50:13;;;;;;;19.07;6.10;;;;;;;18.34;49.40;95871.88;5011387;28;20460;-66
2021/09/30 11:52:41;;;;;;;39.30;29.67;;;;;;;18.59;50.49;95891.03;5011256;28;20448;-64
2021/09/30 11:55:14;;;;;;;16.97;10.80;;;;;;;18.55;50.42;95890.00;5011011;28;20487;-70
2021/09/30 11:57:52;;;;;;;12.97;6.77;;;;;;;18.52;50.18;95906.47;5010657;28;20480;-66
2021/09/30 12:00:19;;;;;;;14.93;5.57;;;;;;;18.56;49.14;95902.19;5008037;28;20958;-66
2021/09/30 12:02:58;;;;;;;9.70;5.50;;;;;;;18.55;49.20;95908.56;5004151;28;20463;-64
2021/09/30 12:05:29;;;;;;;7.07;5.60;;;;;;;18.55;50.01;95899.81;4995539;28;20947;-65
2021/09/30 12:07:58;;;;;;;7.47;5.50;;;;;;;18.38;49.67;95892.25;5010769;28;20518;-68
2021/09/30 12:10:26;;;;;;;8.63;5.77;;;;;;;18.51;49.72;95901.44;5013941;28;20579;-65
2021/09/30 12:12:53;;;;;;;9.20;5.90;;;;;;;18.43;49.33;95897.53;5012468;28;20253;-67
2021/09/30 12:15:22;;;;;;;6.87;6.13;;;;;;;18.46;49.50;95909.44;5023139;28;20436;-69
2021/09/30 12:17:49;;;;;;;8.03;6.03;;;;;;;18.36;49.90;95907.66;5025579;28;20441;-67
2021/09/30 12:20:17;;;;;;;9.63;5.90;;;;;;;18.27;49.10;95896.06;5011400;28;20479;-64
2021/09/30 12:22:47;;;;;;;10.90;6.47;;;;;;;18.48;48.85;95897.50;5010391;28;21029;-69
2021/09/30 12:25:19;;;;;;;11.10;6.90;;;;;;;18.56;49.16;95898.72;5010671;28;20445;-67
2021/09/30 12:27:50;;;;;;;9.73;7.30;;;;;;;18.45;49.72;95900.69;5010167;28;20460;-68
2021/09/30 12:30:27;;;;;;;8.87;6.90;;;;;;;18.52;49.14;95906.47;5010677;28;20988;-64
2021/09/30 12:33:01;;;;;;;9.27;6.97;;;;;;;18.43;50.32;95897.53;5010389;28;20433;-66
2021/09/30 12:35:31;;;;;;;11.03;7.20;;;;;;;18.32;49.75;95895.22;5010848;28;20445;-64
2021/09/30 12:38:01;;;;;;;9.87;6.60;;;;;;;18.25;50.07;95895.53;5009942;28;20472;-65
2021/09/30 12:40:40;;;;;;;14.80;7.27;;;;;;;18.17;50.17;95882.88;5011240;28;20440;-68
2021/09/30 12:43:10;;;;;;;9.40;7.47;;;;;;;18.28;50.86;95899.50;5010248;28;20445;-66
2021/09/30 12:45:57;;;;;;;10.07;6.43;;;;;;;18.21;50.38;95894.50;5010237;28;20483;-67
2021/09/30 12:48:26;;;;;;;12.67;6.27;;;;;;;18.29;50.13;95893.13;5010029;28;20948;-66
2021/09/30 12:50:59;;;;;;;15.50;6.73;;;;;;;18.27;50.27;95892.59;5010104;28;20442;-69
2021/09/30 12:53:28;;;;;;;10.60;6.27;;;;;;;17.95;50.76;95887.84;5010022;28;21189;-67
2021/09/30 12:56:07;;;;;;;27.17;21.60;;;;;;;17.99;49.97;95896.84;5010282;28;20473;-65
2021/09/30 12:58:36;;;;;;;10.73;7.13;;;;;;;17.89;50.54;95891.59;5009905;28;20468;-65
2021/09/30 13:01:34;;;;;;;14.43;8.83;;;;;;;17.59;50.71;95900.53;4999599;28;20540;-67
2021/09/30 13:04:07;;;;;;;46.57;40.30;;;;;;;17.70;50.63;95903.94;4996747;28;20514;-67
2021/09/30 13:06:36;;;;;;;18.40;13.90;;;;;;;17.54;51.23;95899.78;5009781;28;20523;-66
2021/09/30 13:09:05;;;;;;;20.33;11.70;;;;;;;17.78;51.43;95898.03;5010046;28;20449;-67
2021/09/30 13:11:36;;;;;;;12.27;8.20;;;;;;;17.88;51.11;95904.06;5009653;28;21001;-69
2021/09/30 13:14:30;;;;;;;15.97;10.57;;;;;;;17.77;51.68;95893.81;5009827;28;20468;-68
2021/09/30 13:17:06;;;;;;;13.20;8.30;;;;;;;17.66;51.96;95892.28;5009140;28;20571;-63
2021/09/30 13:19:40;;;;;;;8.33;5.23;;;;;;;17.53;51.89;95898.19;5009817;28;20475;-67
2021/09/30 13:22:10;;;;;;;7.57;5.50;;;;;;;17.48;52.26;95895.59;5009442;28;20452;-67
2021/09/30 13:24:39;;;;;;;7.47;5.93;;;;;;;17.68;51.50;95900.78;5014460;28;20444;-67
2021/09/30 13:27:09;;;;;;;8.67;5.33;;;;;;;17.49;51.87;95897.97;5028149;28;20455;-64
2021/09/30 13:29:43;;;;;;;12.47;5.97;;;;;;;17.64;52.13;95889.13;5011074;28;20445;-64
2021/09/30 13:32:10;;;;;;;10.13;6.10;;;;;;;17.62;52.33;95883.31;5009447;28;20870;-67
2021/09/30 13:34:37;;;;;;;13.77;5.97;;;;;;;17.67;52.53;95899.16;5009648;28;20449;-66
2021/09/30 13:37:04;;;;;;;10.53;5.73;;;;;;;17.64;52.05;95892.56;5018147;28;20487;-66
2021/09/30 13:39:31;;;;;;;14.00;5.80;;;;;;;17.45;52.54;95877.53;5014019;28;20459;-65
2021/09/30 13:41:58;;;;;;;16.50;6.63;;;;;;;17.52;52.23;95886.00;5007088;28;20429;-68
2021/09/30 13:44:25;;;;;;;12.37;5.70;;;;;;;17.48;52.94;95885.00;5008709;28;21007;-65
2021/09/30 13:46:53;;;;;;;7.13;5.17;;;;;;;17.59;51.90;95891.81;4995462;28;20950;-65
2021/09/30 13:49:19;;;;;;;10.57;6.10;;;;;;;17.53;53.05;95879.66;5009845;28;20456;-64
2021/09/30 13:51:46;;;;;;;8.47;4.87;;;;;;;17.46;53.21;95882.59;5023042;28;20452;-65
2021/09/30 13:54:13;;;;;;;11.13;5.50;;;;;;;17.65;52.14;95877.44;5009880;28;20445;-66
2021/09/30 13:56:40;;;;;;;9.13;5.37;;;;;;;17.59;52.08;95881.22;5008980;28;22860;-66
2021/09/30 13:59:07;;;;;;;13.10;5.30;;;;;;;17.69;52.25;95878.47;5009551;28;20476;-65
2021/09/30 14:01:54;;;;;;;59.27;49.87;;;;;;;17.77;52.47;95862.00;5008842;28;20878;-66
2021/09/30 14:04:21;;;;;;;8.43;6.20;;;;;;;17.78;51.40;95868.88;5009592;28;20449;-66
2021/09/30 14:06:49;;;;;;;8.87;5.33;;;;;;;17.83;51.65;95872.28;5009012;28;20487;-65
2021/09/30 14:09:16;;;;;;;10.03;5.13;;;;;;;17.88;52.32;95874.88;5009699;28;20440;-66
2021/09/30 14:11:43;;;;;;;8.13;5.10;;;;;;;17.69;51.94;95881.13;5019535;28;20478;-66
2021/09/30 14:14:10;;;;;;;10.27;6.53;;;;;;;17.90;51.23;95877.28;5011942;28;20457;-66
2021/09/30 14:16:37;;;;;;;7.67;5.37;;;;;;;17.65;52.39;95880.09;5008754;28;20905;-64
2021/09/30 14:19:04;;;;;;;12.07;4.47;;;;;;;17.64;52.15;95874.03;5009866;28;20789;-67
2021/09/30 14:21:30;;;;;;;8.37;5.47;;;;;;;17.77;52.50;95878.69;5009932;28;20449;-67
2021/09/30 14:23:57;;;;;;;8.93;5.37;;;;;;;17.65;52.89;95880.88;5010487;28;20456;-65
2021/09/30 14:26:25;;;;;;;5.63;5.03;;;;;;;17.64;53.26;95879.31;5008684;28;20447;-66
2021/09/30 14:28:52;;;;;;;7.90;5.60;;;;;;;17.64;52.45;95881.16;5008219;28;20437;-64
2021/09/30 14:31:20;;;;;;;13.07;5.77;;;;;;;17.56;52.91;95881.75;4996877;28;20487;-67
2021/09/30 14:33:46;;;;;;;219.90;198.50;;;;;;;17.54;52.84;95878.56;5003731;28;20459;-73
2021/09/30 14:36:13;;;;;;;115.87;103.30;;;;;;;17.66;52.30;95879.84;5009571;28;20480;-71